Latest Weather Observations for Snowtown

IDS60801

Issued at 6:35 pm CDT Sunday 26 October 2014 (issued every 30 minutes, with the page automatically refreshed every 10 minutes)

About weather observations | Map of weather stations | Latest weather observations for SA | Other Formats
Station Details ID: 021133 Name: RAYVILLE PARK Lat: -33.77 Lon: 138.22 Height: 109.1 m
Data from the previous 72 hours. | See also: Recent months at Snowtown
Date/Time
CDT
Temp
°C
App
Temp
°C
Dew
Point
Rel
Hum
%
Delta-T
°C
Wind Press
QNH
hPa
Press
MSL
hPa
Rain
since 9 am
mm
Dir
 
Spd
km/h
Gust
km/h
Spd
kts
Gust
kts
26/06:30pm 31.7 25.5 6.0 20 13.8 NNW 28 39 15 21 1005.5 1005.3 0.2
26/06:00pm 31.9 26.6 6.9 21 13.7 NNW 24 35 13 19 1005.7 1005.5 0.2
26/05:30pm 32.3 27.3 6.5 20 14.0 NNW 22 37 12 20 1005.8 1005.6 0.2
26/05:00pm 32.4 26.2 8.0 22 13.6 N 30 48 16 26 1005.7 1005.5 0.2
26/04:30pm 34.1 27.7 8.7 21 14.4 N 32 50 17 27 1005.8 1005.6 0.2
26/04:21pm 34.0 28.2 7.9 20 14.6 N 28 46 15 25 1005.9 1005.7 0.2
26/04:00pm 32.4 27.6 10.4 26 12.7 N 26 35 14 19 1006.4 1006.3 0.2
26/03:30pm 30.7 25.2 10.6 29 11.6 N 30 43 16 23 1007.2 1007.1 0.2
26/03:00pm 28.7 22.7 10.8 33 10.3 N 33 43 18 23 1007.9 1007.8 0.2
26/02:30pm 26.6 20.8 12.6 42 8.2 N 35 44 19 24 1009.2 1009.1 0.2
26/02:00pm 26.3 20.0 13.4 45 7.6 N 39 48 21 26 1009.5 1009.4 0.0
26/01:30pm 24.7 18.6 15.1 55 5.8 N 41 56 22 30 1009.9 1009.8 0.0
26/01:19pm 23.0 16.6 14.3 58 5.1 N 41 61 22 33 1009.5 1009.4 0.0
26/01:00pm 23.5 16.0 12.8 51 6.2 N 44 61 24 33 1010.6 1010.5 0.0
26/12:39pm 22.6 18.2 14.2 59 4.9 NNW 30 52 16 28 1012.0 1011.9 0.0
26/12:30pm 21.7 18.2 15.5 68 3.7 NNW 28 39 15 21 1013.0 1012.8 0.0
26/12:00pm 22.0 18.7 14.9 64 4.2 NW 26 35 14 19 1013.5 1013.3 0.0
26/11:30am 22.7 19.3 14.8 61 4.7 W 26 39 14 21 1013.6 1013.4 0.0
26/11:20am 21.6 18.2 15.9 70 3.4 W 28 50 15 27 1014.1 1014.0 0.0
26/11:00am 19.9 18.7 16.2 79 2.2 N 17 22 9 12 1013.8 1013.7 0.0
26/10:30am 19.8 20.2 16.3 80 2.1 NW 9 13 5 7 1013.2 1013.0 0.0
26/10:00am 17.2 17.4 14.8 86 1.4 WNW 7 13 4 7 1012.9 1012.7 0.0
26/09:30am 15.3 13.4 14.3 94 0.6 NNW 17 22 9 12 1012.7 1012.6 0.0
26/09:00am 14.5 12.8 13.7 95 0.4 NE 15 24 8 13 1012.7 1012.6 1.8
26/08:51am 14.5 13.5 13.5 94 0.6 NE 11 17 6 9 1014.5 1014.4 1.8
26/08:30am 14.8 14.8 13.5 92 0.7 SSE 6 9 3 5 1016.5 1016.4 1.4
26/08:00am 14.9 12.6 12.9 88 1.1 SE 17 26 9 14 1014.8 1014.7 1.2
26/07:30am 16.3 13.5 13.2 82 1.7 SW 20 24 11 13 1014.7 1014.6 1.0
26/07:00am 15.8 12.7 13.3 85 1.4 WSW 22 32 12 17 1014.5 1014.4 1.0
26/06:34am 20.0 13.7 11.0 56 4.9 SW 35 57 19 31 1014.2 1014.1 0.0
26/06:32am 15.0 7.6 12.5 85 1.4 W 43 63 23 34 1015.8 1015.7 0.0
26/06:30am 12.5 9.2 10.9 90 0.8 SW 19 26 10 14 1013.7 1013.5 0.0
26/06:00am 10.9 9.4 9.0 88 0.9 NNW 7 9 4 5 1011.8 1011.7 0.0
26/05:30am 10.5 9.1 8.8 89 0.8 NNW 6 7 3 4 1011.8 1011.7 0.0
26/05:00am 10.4 8.8 8.8 90 0.8 NNW 7 9 4 5 1011.8 1011.7 0.0
26/04:30am 10.3 8.8 9.1 92 0.6 NNW 7 9 4 5 1012.1 1012.0 0.0
26/04:00am 9.6 7.9 8.2 91 0.7 W 7 7 4 4 1012.3 1012.2 0.0
26/03:30am 9.6 9.1 7.9 89 0.8 CALM 0 0 0 0 1012.7 1012.6 0.0
26/03:00am 9.9 9.4 8.0 88 0.9 CALM 0 0 0 0 1012.9 1012.7 0.0
26/02:30am 10.0 9.6 8.3 89 0.8 CALM 0 0 0 0 1013.2 1013.0 0.0
26/02:00am 10.1 8.6 8.4 89 0.8 W 6 7 3 4 1013.8 1013.7 0.0
26/01:30am 10.2 9.1 8.3 88 0.9 WSW 4 6 2 3 1014.2 1014.1 0.0
26/01:00am 10.2 8.6 8.1 87 1.0 WSW 6 7 3 4 1014.6 1014.5 0.0
26/12:30am 11.3 10.3 9.0 86 1.2 W 4 6 2 3 1015.1 1015.0 0.0
26/12:00am 12.4 10.4 10.3 87 1.1 W 11 13 6 7 1015.4 1015.3 0.0
 
Date/Time
CDT
Temp
°C
App
Temp
°C
Dew
Point
Rel
Hum
%
Delta-T
°C
Wind Press
QNH
hPa
Press
MSL
hPa
Rain
since 9 am
mm
Dir
 
Spd
km/h
Gust
km/h
Spd
kts
Gust
kts
25/11:30pm 12.9 11.6 11.1 89 1.0 SW 9 11 5 6 1015.4 1015.3 0.0
25/11:00pm 12.7 11.1 10.1 84 1.3 SSW 9 11 5 6 1015.9 1015.8 0.0
25/10:30pm 13.1 11.1 10.1 82 1.6 SW 11 11 6 6 1016.3 1016.2 0.0
25/10:00pm 14.2 14.1 10.8 80 1.8 WSW 2 9 1 5 1016.4 1016.3 0.0
25/09:30pm 14.5 13.5 10.9 79 1.9 WSW 7 11 4 6 1016.3 1016.2 0.0
25/09:00pm 15.0 13.5 10.4 74 2.4 SW 9 9 5 5 1016.3 1016.2 0.0
25/08:30pm 16.5 15.1 11.0 70 3.0 SW 9 13 5 7 1016.1 1016.0 0.0
25/08:00pm 18.6 16.7 11.7 64 3.8 SSW 13 19 7 10 1015.7 1015.6 0.0
25/07:30pm 21.1 18.1 12.0 56 5.1 S 19 24 10 13 1015.5 1015.4 0.0
25/07:00pm 22.7 19.5 12.0 50 6.1 S 20 28 11 15 1015.2 1015.1 0.0
25/06:30pm 24.2 21.4 11.2 44 7.3 S 17 24 9 13 1015.1 1015.0 0.0
25/06:00pm 25.1 22.0 10.2 39 8.3 SSW 17 22 9 12 1014.9 1014.8 0.0
25/05:30pm 27.0 23.8 9.8 34 9.6 SSW 17 24 9 13 1014.8 1014.7 0.0
25/05:00pm 27.5 24.6 9.8 33 9.9 SSW 15 26 8 14 1014.7 1014.6 0.0
25/04:30pm 28.8 25.6 5.0 22 12.3 SSW 11 20 6 11 1014.5 1014.4 0.0
25/04:00pm 28.6 24.7 5.5 23 12.1 W 15 19 8 10 1014.8 1014.7 0.0
25/03:30pm 28.3 23.9 6.4 25 11.6 W 19 28 10 15 1014.9 1014.8 0.0
25/03:00pm 28.5 24.7 6.0 24 11.8 SW 15 19 8 10 1015.1 1015.0 0.0
25/02:30pm 28.9 23.8 7.5 26 11.6 W 24 35 13 19 1015.3 1015.2 0.0
25/02:00pm 29.0 24.6 7.6 26 11.6 W 20 32 11 17 1015.4 1015.3 0.0
25/01:30pm 28.6 24.6 8.3 28 11.1 WSW 19 30 10 16 1015.6 1015.5 0.0
25/01:00pm 28.8 25.1 9.5 30 10.8 W 19 33 10 18 1015.6 1015.5 0.0
25/12:30pm 28.1 24.5 8.4 29 10.8 SW 17 20 9 11 1015.9 1015.8 0.0
25/12:00pm 27.0 24.1 8.0 30 10.3 SSW 13 22 7 12 1016.1 1016.0 0.0
25/11:30am 26.2 24.8 10.8 38 8.7 S 9 17 5 9 1016.4 1016.3 0.0
25/11:00am 26.1 25.3 11.8 41 8.2 ESE 7 13 4 7 1016.9 1016.8 0.0
25/10:30am 24.1 23.1 12.4 48 6.7 S 9 17 5 9 1017.1 1017.0 0.0
25/10:00am 22.5 22.2 12.7 54 5.6 SE 6 11 3 6 1017.5 1017.4 0.0
25/09:30am 21.2 21.1 13.4 61 4.5 ENE 6 9 3 5 1017.7 1017.6 0.0
25/09:00am 19.5 19.3 13.7 69 3.3 NE 7 11 4 6 1017.7 1017.6 0.0
25/08:30am 17.6 17.6 14.1 80 2.0 N 7 11 4 6 1017.8 1017.7 0.0
25/08:00am 16.0 15.8 12.9 82 1.7 S 6 7 3 4 1017.9 1017.8 0.0
25/07:30am 13.4 12.3 11.8 90 0.9 SSW 9 11 5 6 1017.8 1017.7 0.0
25/07:00am 10.6 8.9 9.8 95 0.4 N 9 11 5 6 1017.1 1017.0 0.0
25/06:30am 9.6 8.2 8.8 95 0.4 W 6 7 3 4 1016.6 1016.5 0.0
25/06:00am 10.0 8.7 9.2 95 0.4 W 6 7 3 4 1015.9 1015.8 0.0
25/05:30am 10.3 10.2 9.4 94 0.5 CALM 0 0 0 0 1015.5 1015.4 0.0
25/05:00am 11.1 11.2 10.2 94 0.5 CALM 0 0 0 0 1015.1 1015.0 0.0
25/04:30am 11.9 11.0 10.8 93 0.6 SW 6 7 3 4 1015.2 1015.1 0.0
25/04:00am 14.2 13.3 13.6 96 0.3 WSW 11 13 6 7 1015.1 1015.0 0.0
25/03:30am 14.2 13.2 13.4 95 0.4 SW 11 13 6 7 1014.6 1014.5 0.0
25/03:00am 14.8 13.6 14.0 95 0.5 SW 13 19 7 10 1014.9 1014.8 0.0
25/02:30am 14.5 12.4 13.7 95 0.4 WSW 17 19 9 10 1015.3 1015.2 0.0
25/02:00am 13.8 12.9 12.7 93 0.6 WSW 9 11 5 6 1015.2 1015.1 0.0
25/01:30am 14.5 13.1 13.4 93 0.6 WSW 13 13 7 7 1015.4 1015.3 0.0
25/01:00am 14.6 13.5 13.1 91 0.8 SW 11 13 6 7 1015.7 1015.6 0.0
25/12:30am 15.1 14.1 13.5 90 0.9 SW 11 11 6 6 1015.6 1015.5 0.0
25/12:00am 15.5 14.9 13.5 88 1.1 SW 9 9 5 5 1015.4 1015.3 0.0
 
Date/Time
CDT
Temp
°C
App
Temp
°C
Dew
Point
Rel
Hum
%
Delta-T
°C
Wind Press
QNH
hPa
Press
MSL
hPa
Rain
since 9 am
mm
Dir
 
Spd
km/h
Gust
km/h
Spd
kts
Gust
kts
24/11:30pm 16.4 15.9 13.9 85 1.4 SSW 9 13 5 7 1015.4 1015.3 0.0
24/11:00pm 16.8 15.2 13.9 83 1.7 SSW 15 17 8 9 1015.4 1015.3 0.0
24/10:30pm 17.3 15.3 12.6 74 2.6 SW 15 19 8 10 1015.1 1015.0 0.0
24/10:00pm 18.1 15.9 12.1 68 3.3 SW 15 19 8 10 1015.1 1015.0 0.0
24/09:30pm 18.6 16.0 11.9 65 3.7 SW 17 24 9 13 1014.9 1014.8 0.0
24/09:00pm 19.4 16.7 11.7 61 4.3 SW 17 22 9 12 1014.6 1014.5 0.0
24/08:30pm 20.9 17.7 8.5 45 6.5 SSW 15 19 8 10 1014.3 1014.2 0.0
24/08:00pm 21.8 18.3 8.7 43 7.0 S 17 22 9 12 1013.6 1013.4 0.0
24/07:30pm 22.4 19.9 10.9 48 6.4 SSW 15 22 8 12 1013.2 1013.0 0.0
24/07:00pm 24.2 18.8 10.8 43 7.5 SSW 30 44 16 24 1012.3 1012.2 0.0
24/06:30pm 28.9 22.7 6.3 24 12.0 SSW 28 43 15 23 1011.6 1011.5 0.0
24/06:26pm 30.5 24.4 5.0 20 13.4 SSW 26 39 14 21 1011.4 1011.3 0.0
24/06:00pm 35.5 31.1 0.6 11 17.6 W 13 19 7 10 1011.0 1010.9 0.0
24/05:30pm 36.3 32.2 2.4 12 17.6 W 13 19 7 10 1011.1 1011.0 0.0
24/05:00pm 35.9 30.8 0.9 11 17.7 W 17 26 9 14 1011.1 1011.0 0.0
24/04:30pm 36.3 31.3 1.2 11 17.9 W 17 24 9 13 1011.3 1011.2 0.0
24/04:00pm 35.8 30.7 0.8 11 17.7 WNW 17 22 9 12 1011.7 1011.6 0.0
24/03:30pm 36.3 30.1 -0.2 10 18.2 WNW 22 30 12 16 1012.0 1011.9 0.0
24/03:00pm 36.8 30.8 -1.2 9 18.7 NW 20 30 11 16 1012.2 1012.1 0.0
24/02:30pm 34.8 28.1 -1.3 10 17.5 NNW 24 30 13 16 1012.5 1012.4 0.0
24/02:00pm 35.6 31.6 0.6 11 17.6 WNW 11 19 6 10 1012.9 1012.7 0.0
24/01:30pm 35.0 30.8 1.4 12 17.0 NW 13 22 7 12 1013.2 1013.0 0.0
24/01:00pm 34.5 29.6 2.1 13 16.6 WNW 17 28 9 15 1013.4 1013.2 0.0
24/12:30pm 33.9 28.7 2.7 14 16.1 WNW 19 26 10 14 1013.7 1013.5 0.0
24/12:00pm 32.7 27.3 2.7 15 15.3 W 20 26 11 14 1014.0 1013.9 0.0
24/11:30am 33.0 26.9 2.9 15 15.5 WNW 24 33 13 18 1014.3 1014.2 0.0
24/11:00am 29.9 22.5 5.2 21 12.9 NW 33 41 18 22 1014.4 1014.3 0.0
24/10:30am 30.8 24.2 7.9 24 12.6 NW 32 43 17 23 1014.5 1014.4 0.0
24/10:00am 28.0 23.1 6.7 26 11.3 NNW 22 30 12 16 1014.8 1014.7 0.0
24/09:30am 28.3 25.8 8.1 28 11.0 NNE 11 20 6 11 1014.8 1014.7 0.0
24/09:00am 24.3 21.7 10.6 42 7.6 N 15 20 8 11 1014.6 1014.5 0.0
24/08:30am 22.3 18.9 11.4 50 6.1 NNE 20 26 11 14 1014.2 1014.1 0.0
24/08:00am 18.3 17.7 13.4 73 2.8 NNE 9 11 5 6 1014.3 1014.2 0.0
24/07:30am 13.8 12.7 11.8 88 1.1 NNE 9 13 5 7 1014.2 1014.1 0.0
24/07:00am 10.4 8.5 9.2 92 0.6 N 9 11 5 6 1014.0 1013.9 0.0
24/06:30am 10.1 8.1 8.7 91 0.7 N 9 11 5 6 1013.8 1013.7 0.0
24/06:00am 10.7 8.1 9.5 92 0.6 N 13 17 7 9 1013.4 1013.2 0.0
24/05:30am 11.1 9.2 9.2 88 1.0 SE 9 11 5 6 1013.3 1013.1 0.0
24/05:00am 12.8 11.7 10.5 86 1.2 SE 7 9 4 5 1013.1 1012.9 0.0
24/04:30am 12.9 12.7 10.6 86 1.2 SE 2 9 1 5 1013.0 1012.8 0.0
24/04:00am 13.0 12.2 10.9 87 1.1 N 6 7 3 4 1013.3 1013.1 0.0
24/03:30am 12.9 11.5 11.0 88 1.0 N 9 9 5 5 1013.2 1013.0 0.0
24/03:00am 12.1 10.9 10.2 88 1.0 N 7 11 4 6 1013.1 1012.9 0.0
24/02:30am 11.6 9.8 9.3 86 1.2 WNW 9 9 5 5 1013.6 1013.4 0.0
24/02:00am 10.9 9.5 8.8 87 1.0 WNW 6 7 3 4 1014.7 1014.6 0.0
24/01:30am 10.0 8.4 7.8 86 1.1 WNW 6 7 3 4 1015.0 1014.9 0.0
24/01:00am 10.2 8.6 8.1 87 1.0 WNW 6 7 3 4 1015.4 1015.3 0.0
24/12:30am 10.9 10.5 8.3 84 1.3 CALM 0 0 0 0 1015.6 1015.5 0.0
24/12:00am 11.3 11.0 8.7 84 1.3 CALM 0 4 0 2 1015.9 1015.8 0.0
 
Date/Time
CDT
Temp
°C
App
Temp
°C
Dew
Point
Rel
Hum
%
Delta-T
°C
Wind Press
QNH
hPa
Press
MSL
hPa
Rain
since 9 am
mm
Dir
 
Spd
km/h
Gust
km/h
Spd
kts
Gust
kts
23/11:30pm 13.1 11.8 10.1 82 1.6 SSW 7 9 4 5 1016.1 1016.0 0.0
23/11:00pm 14.0 13.1 11.2 83 1.5 SW 7 11 4 6 1016.3 1016.2 0.0
23/10:30pm 14.2 12.2 11.5 84 1.4 SW 13 15 7 8 1016.4 1016.3 0.0
23/10:00pm 14.5 13.2 11.3 81 1.7 SW 9 11 5 6 1016.5 1016.4 0.0
23/09:30pm 15.3 13.8 11.9 80 1.8 SW 11 15 6 8 1016.5 1016.4 0.0
23/09:00pm 15.4 13.9 12.0 80 1.9 SW 11 13 6 7 1016.2 1016.1 0.0
23/08:30pm 16.3 15.1 12.7 79 2.0 SW 11 15 6 8 1015.8 1015.7 0.0
23/08:00pm 17.8 16.3 13.1 74 2.7 SW 13 17 7 9 1015.5 1015.4 0.0
23/07:30pm 19.1 16.5 13.1 68 3.4 SW 19 24 10 13 1015.1 1015.0 0.0
23/07:00pm 21.2 18.9 13.1 60 4.6 SSW 17 22 9 12 1014.8 1014.7 0.0

Other Formats:

Comma delimited format used in spreadsheet applications
http://www.bom.gov.au/fwo/IDS60801/IDS60801.95670.axf

JavaScript Object Notation format (JSON) in row-major order
http://www.bom.gov.au/fwo/IDS60801/IDS60801.95670.json